Raith, Canada
Current Conditions -  °F | °C
As of 6:00 AM on Friday 24 Oct 2014 (Local Time) from CYQT Reporting Station
Overcast Overcast  
Wind Chill: 48°   Ceiling: 800
Heat Index: 48°   Visibility: 10mi
Dew Point: 46°   Wind: 3mph
Humidity: 93%   Direction: 70°ENE
Pressure: 29.9"   Gusts: NA
Location:  48.83°N, 89.92°W
Report Text: CYQT 241000Z 07003KT 10SM OVC008 09/08 A2990 RMK ST8 SLP130
Loading
Personal Weather Stations






























Interactive Weather Map
Tropical Storm Tracking
New forecast layout! Learn more

10-Day Weather Forecast

Advertisements
Track Severe Weather on mobile